Bakerville, South Dakota
Current Conditions -  °F | °C
As of 6:53 AM on Friday 31 Oct 2014 (Local Time) from KCUT Reporting Station
Moderate Fog Moderate Fog  
Wind Chill: -6°   Ceiling: 200
Heat Index: -2°   Visibility: 0.5mi
Dew Point: -4°   Wind: 6mph
Humidity: 88%   Direction: 210°SSW
Pressure: 30.32"   Gusts: NA
Location:  43.6653°N, 103.766°W
Report Text: KCUT 311253Z AUTO 21005KT 1/2SM FZFG VV002 M02/M04 A3032 RMK AO2 SLP289 I1001 T10221039
Loading
Personal Weather Stations






























Interactive Weather Map
Tropical Storm Tracking
New forecast layout! Learn more

10-Day Weather Forecast

Advertisements
Track Severe Weather on mobile